sensor_id;sensor_type;location;lat;lon;timestamp;pressure;altitude;pressure_sealevel;temperature;humidity
53715;BME280;39608;55.630;37.864;2024-03-08T00:01:34;99550.09;;;-3.55;56.12
53715;BME280;39608;55.630;37.864;2024-03-08T00:06:36;99537.03;;;-3.64;56.48
53715;BME280;39608;55.630;37.864;2024-03-08T00:11:41;99535.81;;;-3.68;57.01
53715;BME280;39608;55.630;37.864;2024-03-08T00:16:43;99521.53;;;-3.67;56.84
53715;BME280;39608;55.630;37.864;2024-03-08T00:21:45;99505.63;;;-3.73;56.66
53715;BME280;39608;55.630;37.864;2024-03-08T00:26:49;99503.41;;;-3.63;56.78
53715;BME280;39608;55.630;37.864;2024-03-08T00:31:51;99510.91;;;-3.67;57.02
53715;BME280;39608;55.630;37.864;2024-03-08T00:36:53;99502.75;;;-3.65;56.81
53715;BME280;39608;55.630;37.864;2024-03-08T00:41:56;99490.34;;;-3.51;57.13
53715;BME280;39608;55.630;37.864;2024-03-08T00:46:58;99487.91;;;-3.53;56.76
53715;BME280;39608;55.630;37.864;2024-03-08T00:52:00;99469.53;;;-3.61;57.37
53715;BME280;39608;55.630;37.864;2024-03-08T00:57:04;99480.78;;;-3.52;57.14
53715;BME280;39608;55.630;37.864;2024-03-08T01:02:07;99460.59;;;-3.60;57.34
53715;BME280;39608;55.630;37.864;2024-03-08T01:07:10;99462.19;;;-3.46;57.17
53715;BME280;39608;55.630;37.864;2024-03-08T01:12:13;99449.97;;;-3.13;57.36
53715;BME280;39608;55.630;37.864;2024-03-08T01:17:15;99455.59;;;-2.83;56.83
53715;BME280;39608;55.630;37.864;2024-03-08T01:22:17;99450.41;;;-2.58;56.06
53715;BME280;39608;55.630;37.864;2024-03-08T01:27:21;99444.63;;;-2.41;56.53
53715;BME280;39608;55.630;37.864;2024-03-08T01:32:23;99444.81;;;-2.36;55.32
53715;BME280;39608;55.630;37.864;2024-03-08T01:37:25;99435.84;;;-2.42;55.94
53715;BME280;39608;55.630;37.864;2024-03-08T01:42:29;99446.28;;;-2.47;56.00
53715;BME280;39608;55.630;37.864;2024-03-08T01:47:31;99429.69;;;-2.81;56.10
53715;BME280;39608;55.630;37.864;2024-03-08T01:52:35;99425.84;;;-2.98;56.08
53715;BME280;39608;55.630;37.864;2024-03-08T01:57:39;99438.66;;;-2.82;56.39
53715;BME280;39608;55.630;37.864;2024-03-08T02:02:42;99437.63;;;-2.74;56.26
53715;BME280;39608;55.630;37.864;2024-03-08T02:07:45;99430.53;;;-3.00;56.12
53715;BME280;39608;55.630;37.864;2024-03-08T02:12:48;99428.53;;;-3.25;56.68
53715;BME280;39608;55.630;37.864;2024-03-08T02:17:50;99410.63;;;-3.43;56.81
53715;BME280;39608;55.630;37.864;2024-03-08T02:22:55;99394.31;;;-3.67;57.42
53715;BME280;39608;55.630;37.864;2024-03-08T02:27:57;99401.06;;;-3.78;57.21
53715;BME280;39608;55.630;37.864;2024-03-08T02:32:59;99396.16;;;-3.81;57.72
53715;BME280;39608;55.630;37.864;2024-03-08T02:38:03;99395.34;;;-3.81;57.95
53715;BME280;39608;55.630;37.864;2024-03-08T02:43:05;99394.13;;;-3.92;57.85
53715;BME280;39608;55.630;37.864;2024-03-08T02:48:08;99385.97;;;-3.90;58.02
53715;BME280;39608;55.630;37.864;2024-03-08T02:53:12;99389.03;;;-3.73;58.08
53715;BME280;39608;55.630;37.864;2024-03-08T02:58:14;99387.59;;;-3.49;57.91
53715;BME280;39608;55.630;37.864;2024-03-08T03:03:16;99376.50;;;-3.13;57.60
53715;BME280;39608;55.630;37.864;2024-03-08T03:08:19;99382.34;;;-2.90;57.04
53715;BME280;39608;55.630;37.864;2024-03-08T03:13:21;99371.13;;;-2.93;56.80
53715;BME280;39608;55.630;37.864;2024-03-08T03:18:23;99352.06;;;-3.28;57.20
53715;BME280;39608;55.630;37.864;2024-03-08T03:23:29;99354.56;;;-3.53;58.19
53715;BME280;39608;55.630;37.864;2024-03-08T03:28:33;99354.19;;;-3.70;58.27
53715;BME280;39608;55.630;37.864;2024-03-08T03:33:36;99343.19;;;-3.87;58.10
53715;BME280;39608;55.630;37.864;2024-03-08T03:38:39;99337.25;;;-3.89;59.06
53715;BME280;39608;55.630;37.864;2024-03-08T03:43:42;99328.72;;;-3.98;59.22
53715;BME280;39608;55.630;37.864;2024-03-08T03:48:44;99323.41;;;-4.05;59.11
53715;BME280;39608;55.630;37.864;2024-03-08T03:53:47;99315.28;;;-3.90;59.59
53715;BME280;39608;55.630;37.864;2024-03-08T03:58:49;99320.09;;;-3.53;58.63
53715;BME280;39608;55.630;37.864;2024-03-08T04:03:52;99319.38;;;-3.22;58.46
53715;BME280;39608;55.630;37.864;2024-03-08T04:08:55;99317.47;;;-2.95;57.87
53715;BME280;39608;55.630;37.864;2024-03-08T04:13:57;99321.09;;;-2.82;57.61
53715;BME280;39608;55.630;37.864;2024-03-08T04:18:59;99320.25;;;-2.83;57.40
53715;BME280;39608;55.630;37.864;2024-03-08T04:24:09;99303.34;;;-2.88;57.87
53715;BME280;39608;55.630;37.864;2024-03-08T04:29:25;99312.47;;;-2.78;57.51
53715;BME280;39608;55.630;37.864;2024-03-08T04:34:28;99311.13;;;-2.94;57.79
53715;BME280;39608;55.630;37.864;2024-03-08T04:39:31;99310.09;;;-2.93;57.44
53715;BME280;39608;55.630;37.864;2024-03-08T04:44:33;99306.63;;;-2.93;58.15
53715;BME280;39608;55.630;37.864;2024-03-08T04:49:35;99312.53;;;-2.91;58.01
53715;BME280;39608;55.630;37.864;2024-03-08T04:54:39;99304.94;;;-2.81;57.69
53715;BME280;39608;55.630;37.864;2024-03-08T04:59:41;99298.19;;;-2.77;57.43
53715;BME280;39608;55.630;37.864;2024-03-08T05:04:43;99303.09;;;-2.80;58.20
53715;BME280;39608;55.630;37.864;2024-03-08T05:09:46;99295.66;;;-2.65;57.87
53715;BME280;39608;55.630;37.864;2024-03-08T05:14:52;99287.91;;;-2.66;58.00
53715;BME280;39608;55.630;37.864;2024-03-08T05:19:54;99298.16;;;-2.70;58.87
53715;BME280;39608;55.630;37.864;2024-03-08T05:24:57;99297.69;;;-2.60;58.51
53715;BME280;39608;55.630;37.864;2024-03-08T05:29:59;99293.09;;;-2.46;58.26
53715;BME280;39608;55.630;37.864;2024-03-08T05:35:02;99291.72;;;-2.55;58.57
53715;BME280;39608;55.630;37.864;2024-03-08T05:40:09;99290.53;;;-2.60;59.41
53715;BME280;39608;55.630;37.864;2024-03-08T05:45:12;99298.09;;;-2.63;60.12
53715;BME280;39608;55.630;37.864;2024-03-08T05:50:15;99293.28;;;-2.48;59.54
53715;BME280;39608;55.630;37.864;2024-03-08T05:55:18;99286.53;;;-2.44;60.02
53715;BME280;39608;55.630;37.864;2024-03-08T06:00:21;99282.34;;;-2.26;59.32
53715;BME280;39608;55.630;37.864;2024-03-08T06:05:24;99294.50;;;-2.18;59.64
53715;BME280;39608;55.630;37.864;2024-03-08T06:10:28;99278.47;;;-2.05;59.92
53715;BME280;39608;55.630;37.864;2024-03-08T06:15:30;99274.53;;;-1.77;58.92
53715;BME280;39608;55.630;37.864;2024-03-08T06:20:32;99272.78;;;-1.65;58.85
53715;BME280;39608;55.630;37.864;2024-03-08T06:25:35;99276.47;;;-1.66;59.18
53715;BME280;39608;55.630;37.864;2024-03-08T06:30:38;99270.53;;;-1.68;59.84
53715;BME280;39608;55.630;37.864;2024-03-08T06:35:40;99278.41;;;-1.55;59.50
53715;BME280;39608;55.630;37.864;2024-03-08T06:40:43;99275.31;;;-1.33;58.66
53715;BME280;39608;55.630;37.864;2024-03-08T06:45:48;99282.53;;;-1.22;58.74
53715;BME280;39608;55.630;37.864;2024-03-08T06:50:50;99277.34;;;-1.16;59.16
53715;BME280;39608;55.630;37.864;2024-03-08T06:55:53;99271.25;;;-0.87;58.61
53715;BME280;39608;55.630;37.864;2024-03-08T07:00:55;99275.72;;;-0.68;57.67
53715;BME280;39608;55.630;37.864;2024-03-08T07:06:00;99277.47;;;-0.62;57.28
53715;BME280;39608;55.630;37.864;2024-03-08T07:11:04;99267.34;;;-0.30;56.79
53715;BME280;39608;55.630;37.864;2024-03-08T07:16:06;99276.19;;;0.06;56.42
53715;BME280;39608;55.630;37.864;2024-03-08T07:21:09;99271.44;;;0.20;55.88
53715;BME280;39608;55.630;37.864;2024-03-08T07:26:16;99273.25;;;0.43;55.71
53715;BME280;39608;55.630;37.864;2024-03-08T07:31:19;99260.75;;;0.32;55.68
53715;BME280;39608;55.630;37.864;2024-03-08T07:36:27;99287.28;;;0.62;55.13
53715;BME280;39608;55.630;37.864;2024-03-08T07:41:31;99287.97;;;0.58;54.75
53715;BME280;39608;55.630;37.864;2024-03-08T07:46:34;99274.41;;;0.59;54.59
53715;BME280;39608;55.630;37.864;2024-03-08T07:51:37;99267.25;;;0.89;54.05
53715;BME280;39608;55.630;37.864;2024-03-08T07:56:40;99258.19;;;1.18;53.28
53715;BME280;39608;55.630;37.864;2024-03-08T08:01:42;99255.09;;;1.56;52.60
53715;BME280;39608;55.630;37.864;2024-03-08T08:06:45;99253.00;;;1.92;52.31
53715;BME280;39608;55.630;37.864;2024-03-08T08:11:48;99252.13;;;2.25;51.03
53715;BME280;39608;55.630;37.864;2024-03-08T08:16:50;99245.19;;;2.24;51.57
53715;BME280;39608;55.630;37.864;2024-03-08T08:21:53;99248.34;;;2.21;51.12
53715;BME280;39608;55.630;37.864;2024-03-08T08:26:57;99252.41;;;2.46;50.74
53715;BME280;39608;55.630;37.864;2024-03-08T08:31:59;99245.56;;;2.33;50.84
53715;BME280;39608;55.630;37.864;2024-03-08T08:37:01;99239.91;;;2.51;50.79
53715;BME280;39608;55.630;37.864;2024-03-08T08:42:05;99237.75;;;2.70;49.83
53715;BME280;39608;55.630;37.864;2024-03-08T08:47:09;99240.19;;;3.54;48.75
53715;BME280;39608;55.630;37.864;2024-03-08T08:52:11;99237.88;;;3.68;48.13
53715;BME280;39608;55.630;37.864;2024-03-08T08:57:15;99238.41;;;3.65;47.65
53715;BME280;39608;55.630;37.864;2024-03-08T09:02:18;99253.09;;;3.89;48.07
53715;BME280;39608;55.630;37.864;2024-03-08T09:07:21;99244.59;;;3.65;47.97
53715;BME280;39608;55.630;37.864;2024-03-08T09:12:26;99245.59;;;3.27;48.49
53715;BME280;39608;55.630;37.864;2024-03-08T09:17:28;99234.53;;;3.18;49.24
53715;BME280;39608;55.630;37.864;2024-03-08T09:22:31;99228.34;;;3.50;48.30
53715;BME280;39608;55.630;37.864;2024-03-08T09:27:34;99221.00;;;3.67;48.31
53715;BME280;39608;55.630;37.864;2024-03-08T09:32:36;99226.44;;;3.77;48.08
53715;BME280;39608;55.630;37.864;2024-03-08T09:37:38;99229.22;;;4.36;47.07
53715;BME280;39608;55.630;37.864;2024-03-08T09:42:42;99221.91;;;6.54;44.30
53715;BME280;39608;55.630;37.864;2024-03-08T09:47:44;99212.91;;;10.27;37.49
53715;BME280;39608;55.630;37.864;2024-03-08T09:52:48;99215.25;;;10.48;37.14
53715;BME280;39608;55.630;37.864;2024-03-08T09:57:53;99215.09;;;10.11;37.54
53715;BME280;39608;55.630;37.864;2024-03-08T10:03:13;99215.16;;;8.39;39.42
53715;BME280;39608;55.630;37.864;2024-03-08T10:08:16;99216.88;;;6.92;41.61
53715;BME280;39608;55.630;37.864;2024-03-08T10:13:19;99221.75;;;5.94;43.21
53715;BME280;39608;55.630;37.864;2024-03-08T10:18:21;99215.28;;;5.28;43.86
53715;BME280;39608;55.630;37.864;2024-03-08T10:23:23;99210.69;;;5.03;44.14
53715;BME280;39608;55.630;37.864;2024-03-08T10:28:27;99212.31;;;5.04;44.83
53715;BME280;39608;55.630;37.864;2024-03-08T10:33:29;99203.41;;;4.93;44.61
53715;BME280;39608;55.630;37.864;2024-03-08T10:38:31;99206.63;;;4.26;46.41
53715;BME280;39608;55.630;37.864;2024-03-08T10:43:47;99218.44;;;4.31;46.45
53715;BME280;39608;55.630;37.864;2024-03-08T10:48:55;99202.84;;;4.22;46.89
53715;BME280;39608;55.630;37.864;2024-03-08T10:54:00;99200.97;;;3.75;47.62
53715;BME280;39608;55.630;37.864;2024-03-08T10:59:05;99208.53;;;3.51;48.14
53715;BME280;39608;55.630;37.864;2024-03-08T11:04:07;99212.41;;;3.33;48.51
53715;BME280;39608;55.630;37.864;2024-03-08T11:09:27;99197.13;;;3.33;48.97
53715;BME280;39608;55.630;37.864;2024-03-08T11:14:44;99212.81;;;3.19;48.65
53715;BME280;39608;55.630;37.864;2024-03-08T11:19:49;99201.88;;;2.71;50.30
53715;BME280;39608;55.630;37.864;2024-03-08T11:24:52;99205.53;;;3.15;50.05
53715;BME280;39608;55.630;37.864;2024-03-08T11:30:03;99209.75;;;4.08;48.55
53715;BME280;39608;55.630;37.864;2024-03-08T11:35:18;99206.38;;;4.33;47.42
53715;BME280;39608;55.630;37.864;2024-03-08T11:40:21;99204.72;;;4.80;47.11
53715;BME280;39608;55.630;37.864;2024-03-08T11:45:24;99203.44;;;5.08;46.30
53715;BME280;39608;55.630;37.864;2024-03-08T11:50:26;99195.00;;;4.69;46.94
53715;BME280;39608;55.630;37.864;2024-03-08T11:55:28;99188.09;;;4.25;47.71
53715;BME280;39608;55.630;37.864;2024-03-08T12:00:32;99206.88;;;4.25;48.21
53715;BME280;39608;55.630;37.864;2024-03-08T12:05:38;99200.41;;;4.16;48.48
53715;BME280;39608;55.630;37.864;2024-03-08T12:10:40;99196.00;;;4.52;47.21
53715;BME280;39608;55.630;37.864;2024-03-08T12:15:45;99206.69;;;4.42;48.00
53715;BME280;39608;55.630;37.864;2024-03-08T12:20:47;99203.38;;;4.19;47.96
53715;BME280;39608;55.630;37.864;2024-03-08T12:25:50;99214.78;;;4.47;47.67
53715;BME280;39608;55.630;37.864;2024-03-08T12:30:54;99202.53;;;4.72;46.71
53715;BME280;39608;55.630;37.864;2024-03-08T12:35:59;99204.97;;;4.84;46.93
53715;BME280;39608;55.630;37.864;2024-03-08T12:41:01;99198.78;;;4.78;46.71
53715;BME280;39608;55.630;37.864;2024-03-08T12:46:04;99206.13;;;4.35;47.74
53715;BME280;39608;55.630;37.864;2024-03-08T12:51:09;99206.13;;;4.30;47.41
53715;BME280;39608;55.630;37.864;2024-03-08T12:56:11;99199.56;;;4.10;47.95
53715;BME280;39608;55.630;37.864;2024-03-08T13:01:15;99211.44;;;3.76;48.25
53715;BME280;39608;55.630;37.864;2024-03-08T13:06:18;99191.81;;;3.76;48.88
53715;BME280;39608;55.630;37.864;2024-03-08T13:11:22;99211.72;;;4.28;47.94
53715;BME280;39608;55.630;37.864;2024-03-08T13:16:26;99219.50;;;4.24;46.90
53715;BME280;39608;55.630;37.864;2024-03-08T13:21:30;99221.13;;;3.50;48.38
53715;BME280;39608;55.630;37.864;2024-03-08T13:26:32;99220.88;;;3.24;48.61
53715;BME280;39608;55.630;37.864;2024-03-08T13:31:36;99220.25;;;3.12;48.92
53715;BME280;39608;55.630;37.864;2024-03-08T13:36:40;99215.03;;;3.00;49.16
53715;BME280;39608;55.630;37.864;2024-03-08T13:41:44;99212.19;;;2.85;49.44
53715;BME280;39608;55.630;37.864;2024-03-08T13:46:48;99189.03;;;2.73;49.35
53715;BME280;39608;55.630;37.864;2024-03-08T13:51:51;99210.66;;;2.67;50.17
53715;BME280;39608;55.630;37.864;2024-03-08T13:56:55;99198.84;;;2.18;50.76
53715;BME280;39608;55.630;37.864;2024-03-08T14:02:06;99199.03;;;2.17;51.28
53715;BME280;39608;55.630;37.864;2024-03-08T14:07:14;99202.31;;;2.41;50.73
53715;BME280;39608;55.630;37.864;2024-03-08T14:12:17;99203.75;;;2.49;50.17
53715;BME280;39608;55.630;37.864;2024-03-08T14:17:21;99193.78;;;2.44;50.57
53715;BME280;39608;55.630;37.864;2024-03-08T14:22:24;99190.06;;;2.23;50.39
53715;BME280;39608;55.630;37.864;2024-03-08T14:27:27;99190.06;;;2.23;50.89
53715;BME280;39608;55.630;37.864;2024-03-08T14:32:30;99192.38;;;1.97;51.32
53715;BME280;39608;55.630;37.864;2024-03-08T14:37:34;99215.31;;;1.76;51.94
53715;BME280;39608;55.630;37.864;2024-03-08T14:42:36;99195.81;;;1.42;52.53
53715;BME280;39608;55.630;37.864;2024-03-08T14:47:39;99223.66;;;1.29;53.29
53715;BME280;39608;55.630;37.864;2024-03-08T14:52:41;99206.16;;;1.21;53.21
53715;BME280;39608;55.630;37.864;2024-03-08T14:57:43;99234.09;;;1.30;53.07
53715;BME280;39608;55.630;37.864;2024-03-08T15:02:47;99222.53;;;1.25;53.71
53715;BME280;39608;55.630;37.864;2024-03-08T15:07:49;99235.94;;;1.30;53.70
53715;BME280;39608;55.630;37.864;2024-03-08T15:12:52;99207.44;;;1.18;54.53
53715;BME280;39608;55.630;37.864;2024-03-08T15:17:58;99231.19;;;1.32;54.75
53715;BME280;39608;55.630;37.864;2024-03-08T15:23:00;99233.63;;;1.33;54.33
53715;BME280;39608;55.630;37.864;2024-03-08T15:28:04;99232.56;;;1.34;54.97
53715;BME280;39608;55.630;37.864;2024-03-08T15:33:15;99224.13;;;1.26;55.35
53715;BME280;39608;55.630;37.864;2024-03-08T15:38:26;99222.75;;;1.23;54.99
53715;BME280;39608;55.630;37.864;2024-03-08T15:43:28;99249.25;;;1.25;55.66
53715;BME280;39608;55.630;37.864;2024-03-08T15:48:33;99239.44;;;1.30;55.35
53715;BME280;39608;55.630;37.864;2024-03-08T15:53:36;99228.59;;;1.37;55.06
53715;BME280;39608;55.630;37.864;2024-03-08T15:58:38;99255.41;;;1.42;55.47
53715;BME280;39608;55.630;37.864;2024-03-08T16:03:42;99253.31;;;1.44;55.46
53715;BME280;39608;55.630;37.864;2024-03-08T16:08:45;99246.84;;;1.40;55.92
53715;BME280;39608;55.630;37.864;2024-03-08T16:13:48;99246.50;;;1.36;56.07
53715;BME280;39608;55.630;37.864;2024-03-08T16:18:52;99251.84;;;1.08;55.93
53715;BME280;39608;55.630;37.864;2024-03-08T16:23:54;99255.91;;;0.70;57.39
53715;BME280;39608;55.630;37.864;2024-03-08T16:28:56;99249.94;;;0.50;57.77
53715;BME280;39608;55.630;37.864;2024-03-08T16:33:59;99248.47;;;0.31;58.02
53715;BME280;39608;55.630;37.864;2024-03-08T16:39:01;99260.41;;;0.16;58.38
53715;BME280;39608;55.630;37.864;2024-03-08T16:44:03;99257.66;;;0.11;58.73
53715;BME280;39608;55.630;37.864;2024-03-08T16:49:06;99248.34;;;0.02;59.08
53715;BME280;39608;55.630;37.864;2024-03-08T16:54:08;99239.66;;;-0.05;59.14
53715;BME280;39608;55.630;37.864;2024-03-08T16:59:10;99251.47;;;0.11;59.11
53715;BME280;39608;55.630;37.864;2024-03-08T17:04:14;99244.91;;;0.02;59.37
53715;BME280;39608;55.630;37.864;2024-03-08T17:09:18;99249.50;;;-0.06;59.61
53715;BME280;39608;55.630;37.864;2024-03-08T17:14:25;99265.28;;;-0.04;60.42
53715;BME280;39608;55.630;37.864;2024-03-08T17:19:30;99269.78;;;-0.05;60.55
53715;BME280;39608;55.630;37.864;2024-03-08T17:24:33;99260.88;;;0.13;61.08
53715;BME280;39608;55.630;37.864;2024-03-08T17:29:35;99246.97;;;0.35;60.71
53715;BME280;39608;55.630;37.864;2024-03-08T17:34:40;99258.41;;;0.47;60.92
53715;BME280;39608;55.630;37.864;2024-03-08T17:39:42;99251.03;;;0.26;61.04
53715;BME280;39608;55.630;37.864;2024-03-08T17:44:44;99257.41;;;0.01;61.17
53715;BME280;39608;55.630;37.864;2024-03-08T17:49:47;99240.94;;;-0.20;61.16
53715;BME280;39608;55.630;37.864;2024-03-08T17:54:51;99250.41;;;-0.36;61.46
53715;BME280;39608;55.630;37.864;2024-03-08T17:59:53;99251.13;;;-0.40;62.14
53715;BME280;39608;55.630;37.864;2024-03-08T18:04:56;99247.50;;;-0.34;62.45
53715;BME280;39608;55.630;37.864;2024-03-08T18:09:58;99250.41;;;-0.36;62.63
53715;BME280;39608;55.630;37.864;2024-03-08T18:15:00;99245.69;;;-0.22;62.19
53715;BME280;39608;55.630;37.864;2024-03-08T18:20:07;99268.63;;;-0.09;62.42
53715;BME280;39608;55.630;37.864;2024-03-08T18:25:15;99264.94;;;-0.08;62.45
53715;BME280;39608;55.630;37.864;2024-03-08T18:30:19;99258.47;;;0.00;62.35
53715;BME280;39608;55.630;37.864;2024-03-08T18:35:22;99260.75;;;-0.04;62.11
53715;BME280;39608;55.630;37.864;2024-03-08T18:40:24;99250.88;;;-0.27;62.32
53715;BME280;39608;55.630;37.864;2024-03-08T18:45:26;99256.66;;;-0.42;62.81
53715;BME280;39608;55.630;37.864;2024-03-08T18:50:30;99254.56;;;-0.52;63.68
53715;BME280;39608;55.630;37.864;2024-03-08T18:55:33;99260.47;;;-0.49;63.29
53715;BME280;39608;55.630;37.864;2024-03-08T19:00:35;99268.81;;;-0.46;63.22
53715;BME280;39608;55.630;37.864;2024-03-08T19:05:40;99263.00;;;-0.55;63.57
53715;BME280;39608;55.630;37.864;2024-03-08T19:10:42;99264.47;;;-0.71;63.20
53715;BME280;39608;55.630;37.864;2024-03-08T19:15:44;99258.06;;;-0.81;63.89
53715;BME280;39608;55.630;37.864;2024-03-08T19:20:48;99252.72;;;-0.81;64.47
53715;BME280;39608;55.630;37.864;2024-03-08T19:25:50;99256.75;;;-0.91;63.91
53715;BME280;39608;55.630;37.864;2024-03-08T19:30:53;99249.81;;;-0.92;63.78
53715;BME280;39608;55.630;37.864;2024-03-08T19:35:57;99269.34;;;-0.98;64.42
53715;BME280;39608;55.630;37.864;2024-03-08T19:41:01;99252.56;;;-0.98;64.05
53715;BME280;39608;55.630;37.864;2024-03-08T19:46:04;99268.75;;;-1.00;64.60
53715;BME280;39608;55.630;37.864;2024-03-08T19:51:11;99257.16;;;-1.06;64.56
53715;BME280;39608;55.630;37.864;2024-03-08T19:56:17;99260.19;;;-1.02;62.95
53715;BME280;39608;55.630;37.864;2024-03-08T20:01:19;99266.94;;;-1.18;64.28
53715;BME280;39608;55.630;37.864;2024-03-08T20:06:23;99261.97;;;-1.14;64.58
53715;BME280;39608;55.630;37.864;2024-03-08T20:11:25;99258.72;;;-1.16;64.59
53715;BME280;39608;55.630;37.864;2024-03-08T20:16:27;99255.03;;;-1.15;63.75
53715;BME280;39608;55.630;37.864;2024-03-08T20:21:31;99244.63;;;-1.17;64.49
53715;BME280;39608;55.630;37.864;2024-03-08T20:26:33;99245.19;;;-1.15;63.82
53715;BME280;39608;55.630;37.864;2024-03-08T20:31:36;99251.13;;;-1.13;63.76
53715;BME280;39608;55.630;37.864;2024-03-08T20:36:40;99252.88;;;-1.07;63.70
53715;BME280;39608;55.630;37.864;2024-03-08T20:41:44;99256.59;;;-1.08;64.08
53715;BME280;39608;55.630;37.864;2024-03-08T20:46:46;99246.38;;;-1.11;63.43
53715;BME280;39608;55.630;37.864;2024-03-08T20:51:51;99241.50;;;-1.14;63.75
53715;BME280;39608;55.630;37.864;2024-03-08T20:56:53;99261.06;;;-1.08;62.98
53715;BME280;39608;55.630;37.864;2024-03-08T21:01:55;99254.88;;;-1.21;63.42
53715;BME280;39608;55.630;37.864;2024-03-08T21:06:58;99261.34;;;-1.28;62.94
53715;BME280;39608;55.630;37.864;2024-03-08T21:12:01;99253.03;;;-1.39;63.02
53715;BME280;39608;55.630;37.864;2024-03-08T21:17:07;99242.50;;;-1.45;63.05
53715;BME280;39608;55.630;37.864;2024-03-08T21:22:10;99250.84;;;-1.42;62.65
53715;BME280;39608;55.630;37.864;2024-03-08T21:27:12;99259.78;;;-1.36;62.39
53715;BME280;39608;55.630;37.864;2024-03-08T21:32:14;99258.59;;;-1.22;62.54
53715;BME280;39608;55.630;37.864;2024-03-08T21:37:17;99258.81;;;-1.23;62.20
53715;BME280;39608;55.630;37.864;2024-03-08T21:42:21;99255.19;;;-1.29;62.49
53715;BME280;39608;55.630;37.864;2024-03-08T21:47:24;99267.16;;;-1.19;62.05
53715;BME280;39608;55.630;37.864;2024-03-08T21:52:28;99264.09;;;-1.05;61.93
53715;BME280;39608;55.630;37.864;2024-03-08T21:57:31;99270.38;;;-0.99;61.84
53715;BME280;39608;55.630;37.864;2024-03-08T22:02:33;99262.44;;;-1.17;62.18
53715;BME280;39608;55.630;37.864;2024-03-08T22:07:36;99269.75;;;-1.31;61.78
53715;BME280;39608;55.630;37.864;2024-03-08T22:12:38;99279.13;;;-1.47;62.50
53715;BME280;39608;55.630;37.864;2024-03-08T22:17:40;99268.50;;;-1.47;62.50
53715;BME280;39608;55.630;37.864;2024-03-08T22:22:44;99269.16;;;-1.33;62.35
53715;BME280;39608;55.630;37.864;2024-03-08T22:27:46;99272.69;;;-1.21;62.04
53715;BME280;39608;55.630;37.864;2024-03-08T22:32:49;99278.00;;;-1.02;61.62
53715;BME280;39608;55.630;37.864;2024-03-08T22:37:55;99279.63;;;-1.01;61.39
53715;BME280;39608;55.630;37.864;2024-03-08T22:42:57;99277.75;;;-1.01;60.44
53715;BME280;39608;55.630;37.864;2024-03-08T22:47:59;99275.69;;;-0.99;60.34
53715;BME280;39608;55.630;37.864;2024-03-08T22:53:02;99279.16;;;-0.98;60.09
53715;BME280;39608;55.630;37.864;2024-03-08T22:58:04;99269.22;;;-1.03;59.93
53715;BME280;39608;55.630;37.864;2024-03-08T23:03:09;99255.03;;;-1.15;59.82
53715;BME280;39608;55.630;37.864;2024-03-08T23:08:14;99267.75;;;-1.17;59.56
53715;BME280;39608;55.630;37.864;2024-03-08T23:13:18;99272.69;;;-1.21;59.20
53715;BME280;39608;55.630;37.864;2024-03-08T23:18:20;99281.34;;;-1.26;59.18
53715;BME280;39608;55.630;37.864;2024-03-08T23:23:24;99281.44;;;-1.32;59.16
53715;BME280;39608;55.630;37.864;2024-03-08T23:28:26;99278.84;;;-1.39;59.58
53715;BME280;39608;55.630;37.864;2024-03-08T23:33:29;99281.56;;;-1.46;59.12
53715;BME280;39608;55.630;37.864;2024-03-08T23:38:33;99289.31;;;-1.44;59.54
53715;BME280;39608;55.630;37.864;2024-03-08T23:43:35;99282.47;;;-1.52;58.83
53715;BME280;39608;55.630;37.864;2024-03-08T23:48:37;99289.84;;;-1.54;58.72
53715;BME280;39608;55.630;37.864;2024-03-08T23:53:41;99292.88;;;-1.50;57.98
53715;BME280;39608;55.630;37.864;2024-03-08T23:58:43;99290.00;;;-1.49;58.02
